sensor_id;sensor_type;location;lat;lon;timestamp;P1;durP1;ratioP1;P2;durP2;ratioP2
67344;SDS011;54230;52.402;6.276;2023-07-22T00:00:00;11.2;;;5.6;;
67344;SDS011;54230;52.402;6.276;2023-07-22T00:05:00;11.5;;;5.6;;
67344;SDS011;54230;52.402;6.276;2023-07-22T00:10:00;13.0;;;5.3;;
67344;SDS011;54230;52.402;6.276;2023-07-22T00:15:00;13.0;;;5.9;;
67344;SDS011;54230;52.402;6.276;2023-07-22T00:20:00;11.1;;;5.9;;
67344;SDS011;54230;52.402;6.276;2023-07-22T00:25:00;11.8;;;5.8;;
67344;SDS011;54230;52.402;6.276;2023-07-22T00:30:00;12.0;;;6.1;;
67344;SDS011;54230;52.402;6.276;2023-07-22T00:35:00;11.0;;;5.9;;
67344;SDS011;54230;52.402;6.276;2023-07-22T00:40:00;12.5;;;6.3;;
67344;SDS011;54230;52.402;6.276;2023-07-22T00:45:00;12.0;;;5.8;;
67344;SDS011;54230;52.402;6.276;2023-07-22T00:50:00;14.0;;;6.4;;
67344;SDS011;54230;52.402;6.276;2023-07-22T00:55:00;12.0;;;6.4;;
67344;SDS011;54230;52.402;6.276;2023-07-22T01:00:00;15.7;;;6.8;;
67344;SDS011;54230;52.402;6.276;2023-07-22T01:05:00;13.3;;;6.7;;
67344;SDS011;54230;52.402;6.276;2023-07-22T01:10:00;13.4;;;6.8;;
67344;SDS011;54230;52.402;6.276;2023-07-22T01:15:00;13.3;;;6.7;;
67344;SDS011;54230;52.402;6.276;2023-07-22T01:20:00;13.9;;;7.1;;
67344;SDS011;54230;52.402;6.276;2023-07-22T01:25:00;14.6;;;7.0;;
67344;SDS011;54230;52.402;6.276;2023-07-22T01:30:00;15.4;;;7.2;;
67344;SDS011;54230;52.402;6.276;2023-07-22T01:35:00;16.3;;;7.1;;
67344;SDS011;54230;52.402;6.276;2023-07-22T01:40:00;15.8;;;7.4;;
67344;SDS011;54230;52.402;6.276;2023-07-22T01:45:00;17.2;;;7.2;;
67344;SDS011;54230;52.402;6.276;2023-07-22T01:50:00;14.3;;;7.0;;
67344;SDS011;54230;52.402;6.276;2023-07-22T01:55:00;15.9;;;7.6;;
67344;SDS011;54230;52.402;6.276;2023-07-22T02:00:00;16.5;;;7.8;;
67344;SDS011;54230;52.402;6.276;2023-07-22T02:05:00;17.9;;;8.0;;
67344;SDS011;54230;52.402;6.276;2023-07-22T02:10:00;17.4;;;8.1;;
67344;SDS011;54230;52.402;6.276;2023-07-22T02:15:00;17.6;;;8.4;;
67344;SDS011;54230;52.402;6.276;2023-07-22T02:20:00;19.2;;;9.0;;
67344;SDS011;54230;52.402;6.276;2023-07-22T02:25:00;19.2;;;8.9;;
67344;SDS011;54230;52.402;6.276;2023-07-22T02:30:00;18.6;;;9.0;;
67344;SDS011;54230;52.402;6.276;2023-07-22T02:35:00;20.9;;;9.0;;
67344;SDS011;54230;52.402;6.276;2023-07-22T02:40:00;21.2;;;10.2;;
67344;SDS011;54230;52.402;6.276;2023-07-22T02:45:00;21.0;;;9.8;;
67344;SDS011;54230;52.402;6.276;2023-07-22T02:50:00;23.1;;;9.7;;
67344;SDS011;54230;52.402;6.276;2023-07-22T02:55:03;22.8;;;9.6;;
67344;SDS011;54230;52.402;6.276;2023-07-22T03:00:00;23.5;;;10.0;;
67344;SDS011;54230;52.402;6.276;2023-07-22T03:05:00;22.1;;;10.1;;
67344;SDS011;54230;52.402;6.276;2023-07-22T03:10:00;23.4;;;10.3;;
67344;SDS011;54230;52.402;6.276;2023-07-22T03:15:00;22.5;;;10.5;;
67344;SDS011;54230;52.402;6.276;2023-07-22T03:20:00;25.4;;;10.7;;
67344;SDS011;54230;52.402;6.276;2023-07-22T03:25:00;24.1;;;10.2;;
67344;SDS011;54230;52.402;6.276;2023-07-22T03:30:00;24.1;;;10.3;;
67344;SDS011;54230;52.402;6.276;2023-07-22T03:35:00;24.4;;;11.0;;
67344;SDS011;54230;52.402;6.276;2023-07-22T03:40:00;27.5;;;11.1;;
67344;SDS011;54230;52.402;6.276;2023-07-22T03:45:00;24.8;;;10.8;;
67344;SDS011;54230;52.402;6.276;2023-07-22T03:50:00;24.3;;;10.8;;
67344;SDS011;54230;52.402;6.276;2023-07-22T03:55:00;26.0;;;11.5;;
67344;SDS011;54230;52.402;6.276;2023-07-22T04:00:00;25.3;;;11.2;;
67344;SDS011;54230;52.402;6.276;2023-07-22T04:05:00;29.6;;;12.0;;
67344;SDS011;54230;52.402;6.276;2023-07-22T04:10:00;26.7;;;11.3;;
67344;SDS011;54230;52.402;6.276;2023-07-22T04:15:00;28.4;;;12.3;;
67344;SDS011;54230;52.402;6.276;2023-07-22T04:20:00;28.2;;;11.9;;
67344;SDS011;54230;52.402;6.276;2023-07-22T04:25:00;27.0;;;11.6;;
67344;SDS011;54230;52.402;6.276;2023-07-22T04:30:00;26.7;;;11.8;;
67344;SDS011;54230;52.402;6.276;2023-07-22T04:35:00;28.5;;;11.5;;
67344;SDS011;54230;52.402;6.276;2023-07-22T04:40:00;26.5;;;11.6;;
67344;SDS011;54230;52.402;6.276;2023-07-22T04:45:00;27.8;;;12.4;;
67344;SDS011;54230;52.402;6.276;2023-07-22T04:50:00;25.9;;;11.9;;
67344;SDS011;54230;52.402;6.276;2023-07-22T04:55:00;26.9;;;11.8;;
67344;SDS011;54230;52.402;6.276;2023-07-22T05:00:00;28.2;;;12.2;;
67344;SDS011;54230;52.402;6.276;2023-07-22T05:05:00;27.3;;;11.6;;
67344;SDS011;54230;52.402;6.276;2023-07-22T05:10:00;27.9;;;12.0;;
67344;SDS011;54230;52.402;6.276;2023-07-22T05:15:00;25.7;;;12.0;;
67344;SDS011;54230;52.402;6.276;2023-07-22T05:20:00;25.6;;;12.0;;
67344;SDS011;54230;52.402;6.276;2023-07-22T05:25:00;27.1;;;12.5;;
67344;SDS011;54230;52.402;6.276;2023-07-22T05:30:00;28.3;;;12.1;;
67344;SDS011;54230;52.402;6.276;2023-07-22T05:35:00;26.6;;;12.0;;
67344;SDS011;54230;52.402;6.276;2023-07-22T05:40:00;28.0;;;12.2;;
67344;SDS011;54230;52.402;6.276;2023-07-22T05:45:00;26.7;;;12.3;;
67344;SDS011;54230;52.402;6.276;2023-07-22T05:50:00;26.0;;;12.1;;
67344;SDS011;54230;52.402;6.276;2023-07-22T05:55:00;24.1;;;11.6;;
67344;SDS011;54230;52.402;6.276;2023-07-22T06:00:00;24.7;;;12.0;;
67344;SDS011;54230;52.402;6.276;2023-07-22T06:05:00;22.9;;;11.3;;
67344;SDS011;54230;52.402;6.276;2023-07-22T06:10:00;23.6;;;11.5;;
67344;SDS011;54230;52.402;6.276;2023-07-22T06:15:00;24.0;;;11.4;;
67344;SDS011;54230;52.402;6.276;2023-07-22T06:20:00;23.6;;;11.7;;
67344;SDS011;54230;52.402;6.276;2023-07-22T06:25:00;26.2;;;12.0;;
67344;SDS011;54230;52.402;6.276;2023-07-22T06:30:00;25.9;;;11.8;;
67344;SDS011;54230;52.402;6.276;2023-07-22T06:35:00;23.8;;;11.6;;
67344;SDS011;54230;52.402;6.276;2023-07-22T06:40:00;25.6;;;11.6;;
67344;SDS011;54230;52.402;6.276;2023-07-22T06:45:00;21.8;;;10.9;;
67344;SDS011;54230;52.402;6.276;2023-07-22T06:50:00;23.5;;;10.9;;
67344;SDS011;54230;52.402;6.276;2023-07-22T06:55:00;23.9;;;10.9;;
67344;SDS011;54230;52.402;6.276;2023-07-22T07:00:00;22.6;;;10.5;;
67344;SDS011;54230;52.402;6.276;2023-07-22T07:05:00;22.2;;;10.5;;
67344;SDS011;54230;52.402;6.276;2023-07-22T07:10:00;21.2;;;10.6;;
67344;SDS011;54230;52.402;6.276;2023-07-22T07:15:01;18.1;;;9.2;;
67344;SDS011;54230;52.402;6.276;2023-07-22T07:20:00;18.3;;;9.3;;
67344;SDS011;54230;52.402;6.276;2023-07-22T07:25:00;19.6;;;9.3;;
67344;SDS011;54230;52.402;6.276;2023-07-22T07:30:00;18.2;;;8.8;;
67344;SDS011;54230;52.402;6.276;2023-07-22T07:35:00;15.4;;;8.5;;
67344;SDS011;54230;52.402;6.276;2023-07-22T07:40:00;19.6;;;8.5;;
67344;SDS011;54230;52.402;6.276;2023-07-22T07:45:00;15.3;;;7.6;;
67344;SDS011;54230;52.402;6.276;2023-07-22T07:50:00;15.4;;;8.2;;
67344;SDS011;54230;52.402;6.276;2023-07-22T07:55:00;18.3;;;8.5;;
67344;SDS011;54230;52.402;6.276;2023-07-22T08:00:00;15.4;;;8.5;;
67344;SDS011;54230;52.402;6.276;2023-07-22T08:05:00;18.5;;;8.6;;
67344;SDS011;54230;52.402;6.276;2023-07-22T08:10:00;18.4;;;8.9;;
67344;SDS011;54230;52.402;6.276;2023-07-22T08:15:00;16.6;;;8.3;;
67344;SDS011;54230;52.402;6.276;2023-07-22T08:20:00;17.9;;;8.5;;
67344;SDS011;54230;52.402;6.276;2023-07-22T08:25:00;17.3;;;8.4;;
67344;SDS011;54230;52.402;6.276;2023-07-22T08:30:00;18.5;;;7.9;;
67344;SDS011;54230;52.402;6.276;2023-07-22T08:35:00;32.1;;;9.9;;
67344;SDS011;54230;52.402;6.276;2023-07-22T08:40:00;20.8;;;7.9;;
67344;SDS011;54230;52.402;6.276;2023-07-22T08:45:00;13.5;;;5.8;;
67344;SDS011;54230;52.402;6.276;2023-07-22T08:50:01;14.2;;;6.5;;
67344;SDS011;54230;52.402;6.276;2023-07-22T08:55:00;12.0;;;6.3;;
67344;SDS011;54230;52.402;6.276;2023-07-22T09:00:00;12.4;;;5.8;;
67344;SDS011;54230;52.402;6.276;2023-07-22T09:05:00;16.6;;;6.7;;
67344;SDS011;54230;52.402;6.276;2023-07-22T09:10:00;14.3;;;6.3;;
67344;SDS011;54230;52.402;6.276;2023-07-22T09:15:00;12.1;;;5.9;;
67344;SDS011;54230;52.402;6.276;2023-07-22T09:20:00;11.8;;;5.8;;
67344;SDS011;54230;52.402;6.276;2023-07-22T09:30:00;8.3;;;4.2;;
67344;SDS011;54230;52.402;6.276;2023-07-22T09:35:00;8.9;;;4.5;;
67344;SDS011;54230;52.402;6.276;2023-07-22T09:40:00;9.4;;;4.4;;
67344;SDS011;54230;52.402;6.276;2023-07-22T09:45:00;9.5;;;4.3;;
67344;SDS011;54230;52.402;6.276;2023-07-22T09:50:00;8.4;;;3.9;;
67344;SDS011;54230;52.402;6.276;2023-07-22T09:55:00;8.3;;;4.0;;
67344;SDS011;54230;52.402;6.276;2023-07-22T10:00:00;8.5;;;4.3;;
67344;SDS011;54230;52.402;6.276;2023-07-22T10:05:00;8.6;;;4.4;;
67344;SDS011;54230;52.402;6.276;2023-07-22T10:10:00;8.2;;;4.6;;
67344;SDS011;54230;52.402;6.276;2023-07-22T10:15:00;10.1;;;4.7;;
67344;SDS011;54230;52.402;6.276;2023-07-22T10:20:00;8.7;;;4.4;;
67344;SDS011;54230;52.402;6.276;2023-07-22T10:25:00;9.8;;;4.5;;
67344;SDS011;54230;52.402;6.276;2023-07-22T10:30:00;8.9;;;4.4;;
67344;SDS011;54230;52.402;6.276;2023-07-22T10:35:00;8.6;;;4.1;;
67344;SDS011;54230;52.402;6.276;2023-07-22T10:40:00;8.9;;;4.4;;
67344;SDS011;54230;52.402;6.276;2023-07-22T10:45:00;7.8;;;4.7;;
67344;SDS011;54230;52.402;6.276;2023-07-22T10:50:05;8.9;;;4.5;;
67344;SDS011;54230;52.402;6.276;2023-07-22T10:55:00;8.1;;;4.3;;
67344;SDS011;54230;52.402;6.276;2023-07-22T11:00:00;9.4;;;4.6;;
67344;SDS011;54230;52.402;6.276;2023-07-22T11:05:02;11.3;;;5.0;;
67344;SDS011;54230;52.402;6.276;2023-07-22T11:10:10;8.5;;;4.6;;
67344;SDS011;54230;52.402;6.276;2023-07-22T11:15:02;9.3;;;4.5;;
67344;SDS011;54230;52.402;6.276;2023-07-22T11:20:00;11.1;;;5.4;;
67344;SDS011;54230;52.402;6.276;2023-07-22T11:25:00;11.7;;;5.2;;
67344;SDS011;54230;52.402;6.276;2023-07-22T11:30:00;11.3;;;6.5;;
67344;SDS011;54230;52.402;6.276;2023-07-22T11:35:00;11.5;;;5.9;;
67344;SDS011;54230;52.402;6.276;2023-07-22T11:40:00;10.8;;;5.2;;
67344;SDS011;54230;52.402;6.276;2023-07-22T11:45:00;9.0;;;4.7;;
67344;SDS011;54230;52.402;6.276;2023-07-22T11:50:00;8.5;;;4.8;;
67344;SDS011;54230;52.402;6.276;2023-07-22T11:55:01;10.9;;;4.8;;
67344;SDS011;54230;52.402;6.276;2023-07-22T12:00:00;9.9;;;5.0;;
67344;SDS011;54230;52.402;6.276;2023-07-22T12:05:00;11.5;;;5.1;;
67344;SDS011;54230;52.402;6.276;2023-07-22T12:10:00;10.9;;;5.1;;
67344;SDS011;54230;52.402;6.276;2023-07-22T12:15:01;13.4;;;5.6;;
67344;SDS011;54230;52.402;6.276;2023-07-22T12:20:00;12.0;;;6.3;;
67344;SDS011;54230;52.402;6.276;2023-07-22T12:25:00;14.4;;;7.1;;
67344;SDS011;54230;52.402;6.276;2023-07-22T12:30:00;16.3;;;8.2;;
67344;SDS011;54230;52.402;6.276;2023-07-22T12:35:00;17.5;;;8.1;;
67344;SDS011;54230;52.402;6.276;2023-07-22T12:40:00;13.6;;;7.9;;
67344;SDS011;54230;52.402;6.276;2023-07-22T12:45:00;16.3;;;8.9;;
67344;SDS011;54230;52.402;6.276;2023-07-22T12:50:00;15.8;;;9.8;;
67344;SDS011;54230;52.402;6.276;2023-07-22T12:55:00;15.5;;;8.0;;
67344;SDS011;54230;52.402;6.276;2023-07-22T13:00:00;16.1;;;9.5;;
67344;SDS011;54230;52.402;6.276;2023-07-22T13:05:00;14.3;;;8.9;;
67344;SDS011;54230;52.402;6.276;2023-07-22T13:10:00;14.9;;;8.6;;
67344;SDS011;54230;52.402;6.276;2023-07-22T13:15:00;14.9;;;8.9;;
67344;SDS011;54230;52.402;6.276;2023-07-22T13:20:00;12.4;;;8.6;;
67344;SDS011;54230;52.402;6.276;2023-07-22T13:25:00;11.0;;;7.6;;
67344;SDS011;54230;52.402;6.276;2023-07-22T13:30:00;14.0;;;9.1;;
67344;SDS011;54230;52.402;6.276;2023-07-22T13:35:00;14.6;;;9.9;;
67344;SDS011;54230;52.402;6.276;2023-07-22T13:40:00;15.4;;;10.8;;
67344;SDS011;54230;52.402;6.276;2023-07-22T13:45:00;18.2;;;11.1;;
67344;SDS011;54230;52.402;6.276;2023-07-22T13:50:00;17.6;;;11.2;;
67344;SDS011;54230;52.402;6.276;2023-07-22T13:55:00;16.5;;;11.1;;
67344;SDS011;54230;52.402;6.276;2023-07-22T14:00:00;18.9;;;11.3;;
67344;SDS011;54230;52.402;6.276;2023-07-22T14:05:00;19.2;;;11.5;;
67344;SDS011;54230;52.402;6.276;2023-07-22T14:10:00;16.8;;;11.1;;
67344;SDS011;54230;52.402;6.276;2023-07-22T14:15:00;16.4;;;10.5;;
67344;SDS011;54230;52.402;6.276;2023-07-22T14:35:00;12.4;;;8.1;;
67344;SDS011;54230;52.402;6.276;2023-07-22T14:40:00;13.5;;;8.7;;
67344;SDS011;54230;52.402;6.276;2023-07-22T14:45:00;13.8;;;8.5;;
67344;SDS011;54230;52.402;6.276;2023-07-22T14:50:00;15.3;;;9.2;;
67344;SDS011;54230;52.402;6.276;2023-07-22T14:55:00;14.0;;;9.3;;
67344;SDS011;54230;52.402;6.276;2023-07-22T15:00:00;14.3;;;9.6;;
67344;SDS011;54230;52.402;6.276;2023-07-22T15:05:00;17.3;;;10.2;;
67344;SDS011;54230;52.402;6.276;2023-07-22T15:10:00;14.9;;;10.3;;
67344;SDS011;54230;52.402;6.276;2023-07-22T15:15:00;15.2;;;9.8;;
67344;SDS011;54230;52.402;6.276;2023-07-22T15:20:00;14.4;;;8.9;;
67344;SDS011;54230;52.402;6.276;2023-07-22T15:25:03;12.2;;;7.6;;
67344;SDS011;54230;52.402;6.276;2023-07-22T15:30:00;12.4;;;7.4;;
67344;SDS011;54230;52.402;6.276;2023-07-22T15:35:00;10.5;;;6.3;;
67344;SDS011;54230;52.402;6.276;2023-07-22T15:40:00;10.6;;;6.4;;
67344;SDS011;54230;52.402;6.276;2023-07-22T15:45:00;9.9;;;6.2;;
67344;SDS011;54230;52.402;6.276;2023-07-22T15:55:03;9.5;;;5.8;;
67344;SDS011;54230;52.402;6.276;2023-07-22T16:00:00;10.9;;;6.0;;
67344;SDS011;54230;52.402;6.276;2023-07-22T16:05:00;8.9;;;5.6;;
67344;SDS011;54230;52.402;6.276;2023-07-22T16:10:00;9.6;;;6.2;;
67344;SDS011;54230;52.402;6.276;2023-07-22T16:15:00;9.7;;;6.0;;
67344;SDS011;54230;52.402;6.276;2023-07-22T16:20:00;8.8;;;5.3;;
67344;SDS011;54230;52.402;6.276;2023-07-22T16:25:00;10.4;;;5.8;;
67344;SDS011;54230;52.402;6.276;2023-07-22T16:30:00;9.6;;;5.5;;
67344;SDS011;54230;52.402;6.276;2023-07-22T16:35:00;8.7;;;5.3;;
67344;SDS011;54230;52.402;6.276;2023-07-22T16:40:00;10.8;;;5.4;;
67344;SDS011;54230;52.402;6.276;2023-07-22T16:45:00;8.6;;;5.2;;
67344;SDS011;54230;52.402;6.276;2023-07-22T16:50:00;9.6;;;5.0;;
67344;SDS011;54230;52.402;6.276;2023-07-22T16:55:00;9.3;;;4.6;;
67344;SDS011;54230;52.402;6.276;2023-07-22T17:00:00;10.4;;;4.3;;
67344;SDS011;54230;52.402;6.276;2023-07-22T17:05:00;8.0;;;4.5;;
67344;SDS011;54230;52.402;6.276;2023-07-22T17:10:00;10.2;;;4.6;;
67344;SDS011;54230;52.402;6.276;2023-07-22T17:15:00;8.0;;;4.5;;
67344;SDS011;54230;52.402;6.276;2023-07-22T17:20:00;8.5;;;4.1;;
67344;SDS011;54230;52.402;6.276;2023-07-22T17:25:00;8.7;;;4.4;;
67344;SDS011;54230;52.402;6.276;2023-07-22T17:30:00;9.3;;;4.6;;
67344;SDS011;54230;52.402;6.276;2023-07-22T17:35:00;8.4;;;4.5;;
67344;SDS011;54230;52.402;6.276;2023-07-22T17:40:00;9.2;;;4.4;;
67344;SDS011;54230;52.402;6.276;2023-07-22T17:45:00;11.9;;;4.6;;
67344;SDS011;54230;52.402;6.276;2023-07-22T17:50:00;9.6;;;4.9;;
67344;SDS011;54230;52.402;6.276;2023-07-22T17:55:00;10.9;;;4.7;;
67344;SDS011;54230;52.402;6.276;2023-07-22T18:00:00;9.6;;;4.6;;
67344;SDS011;54230;52.402;6.276;2023-07-22T18:05:00;10.7;;;5.0;;
67344;SDS011;54230;52.402;6.276;2023-07-22T18:10:00;9.8;;;4.6;;
67344;SDS011;54230;52.402;6.276;2023-07-22T18:15:00;10.1;;;5.2;;
67344;SDS011;54230;52.402;6.276;2023-07-22T18:20:00;9.1;;;4.8;;
67344;SDS011;54230;52.402;6.276;2023-07-22T18:25:00;10.8;;;4.9;;
67344;SDS011;54230;52.402;6.276;2023-07-22T18:30:00;9.0;;;4.3;;
67344;SDS011;54230;52.402;6.276;2023-07-22T18:35:00;9.7;;;5.8;;
67344;SDS011;54230;52.402;6.276;2023-07-22T18:40:00;11.5;;;5.0;;
67344;SDS011;54230;52.402;6.276;2023-07-22T18:45:00;8.7;;;5.3;;
67344;SDS011;54230;52.402;6.276;2023-07-22T18:50:00;9.9;;;5.4;;
67344;SDS011;54230;52.402;6.276;2023-07-22T18:55:00;9.9;;;5.5;;
67344;SDS011;54230;52.402;6.276;2023-07-22T19:00:00;11.4;;;5.0;;
67344;SDS011;54230;52.402;6.276;2023-07-22T19:05:00;9.8;;;5.5;;
67344;SDS011;54230;52.402;6.276;2023-07-22T19:10:00;11.3;;;6.1;;
67344;SDS011;54230;52.402;6.276;2023-07-22T19:15:00;10.5;;;6.0;;
67344;SDS011;54230;52.402;6.276;2023-07-22T19:20:00;11.3;;;6.3;;
67344;SDS011;54230;52.402;6.276;2023-07-22T19:25:00;10.7;;;5.9;;
67344;SDS011;54230;52.402;6.276;2023-07-22T19:30:00;11.8;;;6.1;;
67344;SDS011;54230;52.402;6.276;2023-07-22T19:35:00;11.0;;;6.2;;
67344;SDS011;54230;52.402;6.276;2023-07-22T19:40:00;10.9;;;6.2;;
67344;SDS011;54230;52.402;6.276;2023-07-22T19:45:00;12.2;;;6.5;;
67344;SDS011;54230;52.402;6.276;2023-07-22T19:50:00;9.4;;;5.9;;
67344;SDS011;54230;52.402;6.276;2023-07-22T19:55:00;12.1;;;6.5;;
67344;SDS011;54230;52.402;6.276;2023-07-22T20:00:00;11.9;;;6.8;;
67344;SDS011;54230;52.402;6.276;2023-07-22T20:05:00;12.4;;;6.5;;
67344;SDS011;54230;52.402;6.276;2023-07-22T20:10:00;12.5;;;6.9;;
67344;SDS011;54230;52.402;6.276;2023-07-22T20:15:00;12.8;;;7.1;;
67344;SDS011;54230;52.402;6.276;2023-07-22T20:20:00;10.5;;;6.6;;
67344;SDS011;54230;52.402;6.276;2023-07-22T20:25:00;11.9;;;6.8;;
67344;SDS011;54230;52.402;6.276;2023-07-22T20:30:00;10.0;;;5.7;;
67344;SDS011;54230;52.402;6.276;2023-07-22T20:35:00;8.8;;;4.9;;
67344;SDS011;54230;52.402;6.276;2023-07-22T20:40:00;8.5;;;4.4;;
67344;SDS011;54230;52.402;6.276;2023-07-22T20:45:00;10.0;;;5.1;;
67344;SDS011;54230;52.402;6.276;2023-07-22T20:50:00;8.5;;;4.3;;
67344;SDS011;54230;52.402;6.276;2023-07-22T20:55:00;8.4;;;4.6;;
67344;SDS011;54230;52.402;6.276;2023-07-22T21:00:00;8.3;;;4.2;;
67344;SDS011;54230;52.402;6.276;2023-07-22T21:05:00;7.1;;;3.8;;
67344;SDS011;54230;52.402;6.276;2023-07-22T21:10:00;7.8;;;3.9;;
67344;SDS011;54230;52.402;6.276;2023-07-22T21:15:00;6.9;;;3.8;;
67344;SDS011;54230;52.402;6.276;2023-07-22T21:20:00;9.3;;;4.2;;
67344;SDS011;54230;52.402;6.276;2023-07-22T21:25:00;8.4;;;4.0;;
67344;SDS011;54230;52.402;6.276;2023-07-22T21:30:00;8.1;;;4.2;;
67344;SDS011;54230;52.402;6.276;2023-07-22T21:35:00;8.6;;;4.0;;
67344;SDS011;54230;52.402;6.276;2023-07-22T21:40:00;9.3;;;4.0;;
67344;SDS011;54230;52.402;6.276;2023-07-22T21:45:00;7.3;;;4.0;;
67344;SDS011;54230;52.402;6.276;2023-07-22T21:50:00;8.1;;;3.8;;
67344;SDS011;54230;52.402;6.276;2023-07-22T21:55:00;6.9;;;3.7;;
67344;SDS011;54230;52.402;6.276;2023-07-22T22:00:00;7.7;;;3.6;;
67344;SDS011;54230;52.402;6.276;2023-07-22T22:05:00;7.9;;;3.9;;
67344;SDS011;54230;52.402;6.276;2023-07-22T22:10:00;8.0;;;3.9;;
67344;SDS011;54230;52.402;6.276;2023-07-22T22:15:00;8.5;;;3.8;;
67344;SDS011;54230;52.402;6.276;2023-07-22T22:20:00;8.2;;;3.7;;
67344;SDS011;54230;52.402;6.276;2023-07-22T22:25:00;7.5;;;4.2;;
67344;SDS011;54230;52.402;6.276;2023-07-22T22:30:00;7.4;;;3.8;;
67344;SDS011;54230;52.402;6.276;2023-07-22T22:35:00;9.6;;;4.3;;
67344;SDS011;54230;52.402;6.276;2023-07-22T22:40:00;8.6;;;4.2;;
67344;SDS011;54230;52.402;6.276;2023-07-22T22:45:00;10.1;;;4.7;;
67344;SDS011;54230;52.402;6.276;2023-07-22T22:50:00;9.1;;;4.6;;
67344;SDS011;54230;52.402;6.276;2023-07-22T22:55:00;8.8;;;4.7;;
67344;SDS011;54230;52.402;6.276;2023-07-22T23:00:00;8.9;;;4.7;;
67344;SDS011;54230;52.402;6.276;2023-07-22T23:05:00;8.9;;;4.5;;
67344;SDS011;54230;52.402;6.276;2023-07-22T23:10:00;8.7;;;4.7;;
67344;SDS011;54230;52.402;6.276;2023-07-22T23:15:00;9.6;;;4.6;;
67344;SDS011;54230;52.402;6.276;2023-07-22T23:20:00;9.9;;;4.6;;
67344;SDS011;54230;52.402;6.276;2023-07-22T23:25:00;9.4;;;4.4;;
67344;SDS011;54230;52.402;6.276;2023-07-22T23:30:00;9.6;;;4.7;;
67344;SDS011;54230;52.402;6.276;2023-07-22T23:35:00;8.6;;;4.6;;
67344;SDS011;54230;52.402;6.276;2023-07-22T23:40:00;10.1;;;4.5;;
67344;SDS011;54230;52.402;6.276;2023-07-22T23:45:00;8.2;;;4.5;;
67344;SDS011;54230;52.402;6.276;2023-07-22T23:50:00;9.1;;;4.7;;
67344;SDS011;54230;52.402;6.276;2023-07-22T23:55:00;9.9;;;4.8;;
